Terminal Aerodrome Forecast
Issued by NWS

Home | Current Version | Previous Version | Text Only | Print | Product List | Glossary On
Versions: 1 2 3 4 5 6 7 8 9 10 11 12 13 14 15 16 17 18 19 20 21 22 23 24 25 26 27 28 29 30 31 32 33 34
000
FTUS43 KMKX 301604 AAB
TAFENW
TAF AMD
KENW 301604Z 3016/3112 25006KT P6SM VCSH SCT025
     FM310300 VRB03KT 5SM BR VCTS BKN040CB
     FM310800 35006KT 2SM BR BKN060
     FM311000 01007KT 3SM BR BKN060=

USA.gov is the U.S. government's official web portal to all federal, state and local government web resources and services.